createdAt,value
2023-05-19T00:01:17.802Z,8.68
2023-05-19T00:03:57.549Z,9.27
2023-05-19T00:06:27.652Z,9.10
2023-05-19T00:09:00.164Z,10.52
2023-05-19T00:11:28.308Z,10.18
2023-05-19T00:13:56.970Z,10.88
2023-05-19T00:18:51.856Z,9.10
2023-05-19T00:21:19.465Z,11.18
2023-05-19T00:23:46.324Z,11.13
2023-05-19T00:26:13.075Z,11.45
2023-05-19T00:28:39.938Z,8.02
2023-05-19T00:31:07.016Z,9.68
2023-05-19T00:33:34.021Z,11.55
2023-05-19T00:36:03.452Z,9.73
2023-05-19T00:38:34.843Z,16.25
2023-05-19T00:41:05.704Z,12.68
2023-05-19T00:43:34.408Z,12.88
2023-05-19T00:46:01.116Z,11.80
2023-05-19T00:48:28.074Z,9.50
2023-05-19T00:51:01.961Z,10.90
2023-05-19T00:53:29.510Z,10.52
2023-05-19T00:55:56.541Z,10.00
2023-05-19T00:58:25.671Z,13.98
2023-05-19T01:00:53.010Z,11.63
2023-05-19T01:03:20.760Z,11.68
2023-05-19T01:05:53.841Z,11.50
2023-05-19T01:08:20.641Z,14.60
2023-05-19T01:10:47.301Z,16.05
2023-05-19T01:13:14.417Z,17.65
2023-05-19T01:16:02.917Z,17.95
2023-05-19T01:18:42.612Z,11.18
2023-05-19T01:21:31.468Z,12.88
2023-05-19T01:24:14.349Z,14.73
2023-05-19T01:26:56.664Z,13.40
2023-05-19T01:30:17.072Z,13.35
2023-05-19T01:32:45.576Z,11.25
2023-05-19T01:35:15.652Z,15.13
2023-05-19T01:37:42.928Z,14.43
2023-05-19T01:40:10.505Z,11.48
2023-05-19T01:42:40.534Z,11.60
2023-05-19T01:47:55.816Z,13.63
2023-05-19T01:50:22.966Z,14.98
2023-05-19T01:52:50.257Z,14.93
2023-05-19T01:55:17.061Z,14.90
2023-05-19T01:58:19.619Z,16.38
2023-05-19T02:01:21.243Z,14.32
2023-05-19T02:04:09.574Z,16.00
2023-05-19T02:06:51.351Z,14.02
2023-05-19T02:09:39.768Z,13.35
2023-05-19T02:12:25.084Z,13.85
2023-05-19T02:15:05.565Z,10.52
2023-05-19T02:17:36.291Z,16.23
2023-05-19T02:20:04.926Z,19.52
2023-05-19T02:22:31.799Z,17.40
2023-05-19T02:24:58.514Z,11.85
2023-05-19T02:27:25.089Z,15.50
2023-05-19T02:29:52.733Z,20.85
2023-05-19T02:32:21.086Z,22.17
2023-05-19T02:34:47.989Z,21.13
2023-05-19T02:37:15.790Z,17.02
2023-05-19T02:39:44.393Z,20.00
2023-05-19T02:42:12.480Z,22.75
2023-05-19T02:44:39.193Z,23.05
2023-05-19T02:47:05.926Z,27.05
2023-05-19T02:49:36.103Z,18.13
2023-05-19T02:52:03.795Z,25.67
2023-05-19T02:54:31.534Z,18.77
2023-05-19T02:56:58.562Z,27.08
2023-05-19T02:59:25.800Z,25.98
2023-05-19T03:01:57.524Z,22.55
2023-05-19T03:04:24.130Z,23.92
2023-05-19T03:06:50.868Z,19.73
2023-05-19T03:09:17.516Z,20.30
2023-05-19T03:11:44.100Z,17.08
2023-05-19T03:14:10.784Z,19.23
2023-05-19T03:16:41.163Z,17.17
2023-05-19T03:19:09.296Z,15.77
2023-05-19T03:21:36.187Z,20.33
2023-05-19T03:24:02.906Z,20.65
2023-05-19T03:26:29.459Z,14.60
2023-05-19T03:28:56.271Z,16.05
2023-05-19T03:31:22.972Z,16.42
2023-05-19T03:33:49.596Z,15.30
2023-05-19T03:36:16.262Z,15.70
2023-05-19T03:38:42.879Z,14.50
2023-05-19T03:41:09.600Z,13.10
2023-05-19T03:43:36.241Z,17.63
2023-05-19T03:46:02.915Z,12.73
2023-05-19T03:48:29.610Z,14.88
2023-05-19T03:50:56.239Z,15.68
2023-05-19T03:53:22.936Z,16.52
2023-05-19T03:55:50.685Z,14.77
2023-05-19T03:58:17.390Z,15.52
2023-05-19T04:00:44.024Z,12.80
2023-05-19T04:03:10.855Z,11.15
2023-05-19T04:05:37.715Z,11.30
2023-05-19T04:08:04.472Z,9.80
2023-05-19T04:10:31.222Z,10.88
2023-05-19T04:12:58.145Z,9.80
2023-05-19T04:15:24.885Z,10.45
2023-05-19T04:17:51.822Z,10.55
2023-05-19T04:20:18.575Z,8.60
2023-05-19T04:22:45.344Z,10.02
2023-05-19T04:25:12.053Z,12.70
2023-05-19T04:27:41.016Z,9.52
2023-05-19T04:30:08.861Z,10.60
2023-05-19T04:32:37.540Z,11.65
2023-05-19T04:35:04.806Z,9.30
2023-05-19T04:37:31.589Z,12.73
2023-05-19T04:39:58.242Z,10.00
2023-05-19T04:42:26.214Z,9.18
2023-05-19T04:44:53.044Z,9.10
2023-05-19T04:47:21.662Z,8.52
2023-05-19T04:49:48.493Z,11.13
2023-05-19T04:52:16.019Z,8.35
2023-05-19T04:54:44.349Z,8.32
2023-05-19T04:57:13.053Z,9.65
2023-05-19T04:59:40.002Z,7.38
2023-05-19T05:02:06.880Z,8.60
2023-05-19T05:04:33.891Z,9.48
2023-05-19T05:07:00.729Z,11.05
2023-05-19T05:09:27.615Z,12.18
2023-05-19T05:11:54.799Z,9.45
2023-05-19T05:14:21.811Z,12.10
2023-05-19T05:16:49.623Z,9.80
2023-05-19T05:19:16.697Z,10.63
2023-05-19T05:21:43.617Z,10.82
2023-05-19T05:24:17.003Z,9.27
2023-05-19T05:26:44.936Z,8.93
2023-05-19T05:29:15.629Z,9.38
2023-05-19T05:31:42.837Z,10.10
2023-05-19T05:34:12.697Z,9.43
2023-05-19T05:36:42.586Z,12.10
2023-05-19T05:39:10.108Z,7.85
2023-05-19T05:41:37.070Z,8.25
2023-05-19T05:44:05.208Z,10.82
2023-05-19T05:46:32.714Z,9.30
2023-05-19T05:48:59.897Z,10.55
2023-05-19T05:51:28.069Z,8.38
2023-05-19T05:53:55.700Z,10.60
2023-05-19T05:56:22.565Z,9.27
2023-05-19T05:58:49.730Z,8.32
2023-05-19T06:01:17.914Z,6.63
2023-05-19T06:03:45.115Z,7.63
2023-05-19T06:06:13.935Z,8.60
2023-05-19T06:08:40.644Z,8.88
2023-05-19T06:11:08.791Z,7.45
2023-05-19T06:13:36.793Z,8.98
2023-05-19T06:16:03.995Z,7.18
2023-05-19T06:18:30.717Z,6.50
2023-05-19T06:20:57.532Z,8.32
2023-05-19T06:23:25.289Z,8.13
2023-05-19T06:25:52.968Z,8.00
2023-05-19T06:28:19.659Z,8.73
2023-05-19T06:30:46.432Z,9.75
2023-05-19T06:33:13.066Z,6.55
2023-05-19T06:35:42.470Z,5.40
2023-05-19T06:38:09.085Z,8.02
2023-05-19T06:40:37.036Z,5.65
2023-05-19T06:43:04.858Z,7.85
2023-05-19T06:45:31.657Z,6.78
2023-05-19T06:47:58.555Z,8.98
2023-05-19T06:50:26.619Z,6.05
2023-05-19T06:52:53.244Z,8.38
2023-05-19T06:55:20.068Z,5.25
2023-05-19T06:57:46.708Z,7.22
2023-05-19T07:00:16.798Z,8.13
2023-05-19T07:02:45.018Z,6.68
2023-05-19T07:05:12.804Z,6.93
2023-05-19T07:07:39.773Z,5.70
2023-05-19T07:10:07.047Z,6.05
2023-05-19T07:12:33.753Z,6.35
2023-05-19T07:15:00.689Z,8.15
2023-05-19T07:17:27.416Z,11.38
2023-05-19T07:19:54.059Z,7.47
2023-05-19T07:22:21.236Z,10.77
2023-05-19T07:24:47.969Z,5.93
2023-05-19T07:27:14.630Z,7.30
2023-05-19T07:29:41.300Z,6.68
2023-05-19T07:32:07.972Z,6.50
2023-05-19T07:34:34.680Z,6.47
2023-05-19T07:37:02.134Z,6.57
2023-05-19T07:39:29.815Z,5.30
2023-05-19T07:41:57.306Z,5.32
2023-05-19T07:44:23.941Z,6.40
2023-05-19T07:46:50.795Z,5.60
2023-05-19T07:49:17.486Z,7.68
2023-05-19T07:51:45.185Z,4.82
2023-05-19T07:54:12.900Z,5.55
2023-05-19T07:56:39.927Z,6.55
2023-05-19T07:59:07.976Z,5.35
2023-05-19T08:04:01.373Z,8.40
2023-05-19T08:06:30.081Z,4.50
2023-05-19T08:08:56.715Z,6.25
2023-05-19T08:11:24.510Z,7.18
2023-05-19T08:13:51.771Z,6.57
2023-05-19T08:16:18.700Z,6.63
2023-05-19T08:18:45.495Z,6.38
2023-05-19T08:21:12.383Z,6.80
2023-05-19T08:23:39.117Z,4.45
2023-05-19T08:26:05.866Z,6.35
2023-05-19T08:28:32.569Z,4.00
2023-05-19T08:31:02.454Z,7.50
2023-05-19T08:33:29.110Z,7.80
2023-05-19T08:35:58.192Z,8.90
2023-05-19T08:38:26.338Z,6.10
2023-05-19T08:40:53.280Z,5.63
2023-05-19T08:43:21.185Z,7.43
2023-05-19T08:45:48.504Z,7.18
2023-05-19T08:48:17.482Z,7.13
2023-05-19T08:50:57.043Z,9.48
2023-05-19T08:53:34.858Z,8.88
2023-05-19T08:56:11.514Z,10.23
2023-05-19T08:58:43.939Z,7.90
2023-05-19T09:01:14.559Z,6.93
2023-05-19T09:03:43.062Z,6.15
2023-05-19T09:06:13.962Z,6.45
2023-05-19T09:08:42.615Z,6.90
2023-05-19T09:11:11.097Z,6.32
2023-05-19T09:13:39.077Z,8.15
2023-05-19T09:18:34.199Z,7.70
2023-05-19T09:21:03.198Z,9.85
2023-05-19T09:23:36.561Z,5.80
2023-05-19T09:26:08.082Z,7.28
2023-05-19T09:28:36.865Z,5.13
2023-05-19T09:31:06.802Z,7.55
2023-05-19T09:33:36.036Z,5.30
2023-05-19T09:36:05.808Z,9.35
2023-05-19T09:38:33.253Z,9.40
2023-05-19T09:41:01.355Z,5.68
2023-05-19T09:43:30.045Z,6.70
2023-05-19T09:46:03.648Z,5.13
2023-05-19T09:48:30.562Z,6.05
2023-05-19T09:50:58.168Z,6.70
2023-05-19T09:53:25.509Z,6.47
2023-05-19T09:55:57.904Z,7.72
2023-05-19T09:58:25.161Z,7.07
2023-05-19T10:00:54.754Z,6.45
2023-05-19T10:03:24.035Z,5.97
2023-05-19T10:05:53.076Z,9.27
2023-05-19T10:08:20.372Z,7.57
2023-05-19T10:10:47.861Z,10.98
2023-05-19T10:13:16.551Z,7.95
2023-05-19T10:15:57.241Z,4.95
2023-05-19T10:18:25.910Z,7.35
2023-05-19T10:20:53.936Z,6.68
2023-05-19T10:25:49.437Z,6.82
2023-05-19T10:28:21.165Z,7.55
2023-05-19T10:30:53.123Z,5.30
2023-05-19T10:33:29.392Z,5.35
2023-05-19T10:36:25.477Z,7.07
2023-05-19T10:39:17.475Z,7.28
2023-05-19T10:42:11.458Z,7.93
2023-05-19T10:44:53.457Z,5.63
2023-05-19T10:47:26.413Z,6.72
2023-05-19T10:49:56.325Z,6.70
2023-05-19T10:52:29.778Z,7.43
2023-05-19T10:54:58.332Z,3.70
2023-05-19T10:57:28.554Z,5.95
2023-05-19T10:59:57.151Z,4.00
2023-05-19T11:02:43.254Z,5.88
2023-05-19T11:08:02.314Z,5.50
2023-05-19T11:10:29.301Z,5.30
2023-05-19T11:12:58.272Z,5.55
2023-05-19T11:15:28.767Z,5.50
2023-05-19T11:17:55.608Z,3.95
2023-05-19T11:20:28.874Z,4.60
2023-05-19T11:23:17.914Z,5.90
2023-05-19T11:25:49.513Z,4.78
2023-05-19T11:28:19.542Z,6.93
2023-05-19T11:30:52.284Z,5.22
2023-05-19T11:33:20.721Z,4.18
2023-05-19T11:35:49.829Z,5.60
2023-05-19T11:38:20.483Z,8.45
2023-05-19T11:40:49.746Z,5.15
2023-05-19T11:43:16.811Z,6.35
2023-05-19T11:45:44.109Z,6.28
2023-05-19T11:48:16.074Z,6.05
2023-05-19T11:50:44.211Z,5.85
2023-05-19T11:53:16.366Z,6.88
2023-05-19T11:55:47.555Z,7.65
2023-05-19T11:58:14.581Z,7.10
2023-05-19T12:00:43.392Z,4.88
2023-05-19T12:03:11.563Z,6.10
2023-05-19T12:05:44.912Z,3.67
2023-05-19T12:08:12.531Z,4.55
2023-05-19T12:10:40.130Z,3.88
2023-05-19T12:13:09.199Z,5.90
2023-05-19T12:15:36.687Z,5.05
2023-05-19T12:18:04.146Z,6.13
2023-05-19T12:20:36.172Z,5.70
2023-05-19T12:23:03.867Z,5.65
2023-05-19T12:25:32.456Z,5.40
2023-05-19T12:28:00.909Z,7.20
2023-05-19T12:30:29.291Z,5.80
2023-05-19T12:33:00.402Z,6.82
2023-05-19T12:35:33.289Z,5.88
2023-05-19T12:38:04.897Z,5.68
2023-05-19T12:40:32.023Z,6.53
2023-05-19T12:42:59.537Z,8.15
2023-05-19T12:45:28.432Z,5.80
2023-05-19T12:47:56.257Z,7.07
2023-05-19T12:50:30.537Z,8.15
2023-05-19T12:52:59.590Z,6.70
2023-05-19T12:55:26.515Z,7.35
2023-05-19T12:57:56.888Z,7.32
2023-05-19T13:00:32.635Z,5.65
2023-05-19T13:03:00.881Z,8.45
2023-05-19T13:05:29.193Z,5.57
2023-05-19T13:08:10.174Z,7.45
2023-05-19T13:10:38.572Z,5.55
2023-05-19T13:13:08.415Z,4.97
2023-05-19T13:15:38.109Z,6.25
2023-05-19T13:18:06.426Z,7.13
2023-05-19T13:20:33.732Z,5.25
2023-05-19T13:23:01.148Z,5.32
2023-05-19T13:25:28.378Z,5.43
2023-05-19T13:27:55.407Z,5.82
2023-05-19T13:30:22.745Z,5.70
2023-05-19T13:32:49.815Z,6.03
2023-05-19T13:35:16.710Z,5.63
2023-05-19T13:37:43.583Z,5.20
2023-05-19T13:40:11.337Z,4.60
2023-05-19T13:45:05.571Z,5.38
2023-05-19T13:47:32.366Z,8.48
2023-05-19T13:49:59.325Z,3.90
2023-05-19T13:52:27.545Z,4.10
2023-05-19T13:54:56.703Z,4.50
2023-05-19T13:57:26.535Z,5.57
2023-05-19T14:00:02.461Z,4.45
2023-05-19T14:02:30.521Z,3.75
2023-05-19T14:04:57.662Z,3.42
2023-05-19T14:07:25.737Z,6.18
2023-05-19T14:09:53.141Z,4.53
2023-05-19T14:12:23.255Z,4.50
2023-05-19T14:14:52.180Z,4.57
2023-05-19T14:17:19.043Z,3.05
2023-05-19T14:19:45.761Z,2.85
2023-05-19T14:22:13.489Z,4.35
2023-05-19T14:24:41.585Z,4.47
2023-05-19T14:27:08.240Z,5.22
2023-05-19T14:29:35.503Z,3.75
2023-05-19T14:32:03.449Z,6.07
2023-05-19T14:34:30.480Z,4.00
2023-05-19T14:36:57.234Z,3.75
2023-05-19T14:39:23.873Z,4.10
2023-05-19T14:41:52.011Z,4.25
2023-05-19T14:44:18.809Z,3.40
2023-05-19T14:46:45.543Z,3.97
2023-05-19T14:49:12.204Z,3.40
2023-05-19T14:51:38.909Z,5.40
2023-05-19T14:54:05.610Z,4.97
2023-05-19T14:56:32.277Z,3.25
2023-05-19T14:58:58.900Z,3.90
2023-05-19T15:01:25.910Z,4.05
2023-05-19T15:03:52.790Z,4.97
2023-05-19T15:06:19.567Z,4.93
2023-05-19T15:08:46.456Z,4.25
2023-05-19T15:11:13.187Z,3.38
2023-05-19T15:13:40.787Z,2.60
2023-05-19T15:16:17.645Z,5.28
2023-05-19T15:18:45.236Z,2.35
2023-05-19T15:21:12.499Z,4.03
2023-05-19T15:23:39.141Z,3.83
2023-05-19T15:26:06.024Z,2.78
2023-05-19T15:28:33.595Z,2.83
2023-05-19T15:31:00.428Z,4.00
2023-05-19T15:33:27.202Z,4.03
2023-05-19T15:35:54.347Z,4.15
2023-05-19T15:38:21.186Z,3.50
2023-05-19T15:40:48.179Z,2.55
2023-05-19T15:43:14.984Z,2.65
2023-05-19T15:45:41.689Z,3.25
2023-05-19T15:48:08.817Z,3.72
2023-05-19T15:50:36.139Z,2.33
2023-05-19T15:53:03.535Z,3.22
2023-05-19T15:55:30.505Z,2.95
2023-05-19T15:57:57.287Z,3.63
2023-05-19T16:00:23.941Z,2.33
2023-05-19T16:02:50.777Z,3.08
2023-05-19T16:05:17.914Z,2.80
2023-05-19T16:07:45.084Z,4.05
2023-05-19T16:10:11.790Z,4.05
2023-05-19T16:12:38.609Z,3.17
2023-05-19T16:15:05.781Z,3.08
2023-05-19T16:17:32.621Z,2.55
2023-05-19T16:19:59.294Z,2.50
2023-05-19T16:22:26.210Z,3.03
2023-05-19T16:24:53.145Z,1.60
2023-05-19T16:27:19.921Z,3.15
2023-05-19T16:29:46.607Z,2.88
2023-05-19T16:32:13.379Z,3.53
2023-05-19T16:34:40.337Z,5.70
2023-05-19T16:37:07.366Z,3.90
2023-05-19T16:39:37.321Z,2.53
2023-05-19T16:42:04.783Z,3.00
2023-05-19T16:44:31.533Z,3.17
2023-05-19T16:46:58.168Z,3.33
2023-05-19T16:49:24.812Z,1.98
2023-05-19T16:51:53.152Z,2.22
2023-05-19T16:54:21.380Z,2.13
2023-05-19T16:56:50.494Z,2.58
2023-05-19T16:59:17.478Z,2.40
2023-05-19T17:01:44.830Z,2.00
2023-05-19T17:04:11.984Z,2.70
2023-05-19T17:06:39.249Z,2.70
2023-05-19T17:09:06.184Z,2.97
2023-05-19T17:11:32.929Z,2.38
2023-05-19T17:13:59.924Z,2.17
2023-05-19T17:16:27.744Z,2.15
2023-05-19T17:18:54.520Z,2.78
2023-05-19T17:21:21.552Z,3.30
2023-05-19T17:23:49.430Z,3.42
2023-05-19T17:28:43.542Z,2.17
2023-05-19T17:31:12.034Z,2.03
2023-05-19T17:33:39.452Z,3.92
2023-05-19T17:36:07.288Z,2.90
2023-05-19T17:38:34.547Z,2.47
2023-05-19T17:41:02.446Z,3.08
2023-05-19T17:45:56.786Z,3.28
2023-05-19T17:48:25.940Z,7.05
2023-05-19T17:50:52.641Z,2.60
2023-05-19T17:53:19.698Z,3.20
2023-05-19T17:55:51.803Z,2.38
2023-05-19T17:58:19.803Z,3.15
2023-05-19T18:03:13.933Z,4.05
2023-05-19T18:05:43.344Z,3.13
2023-05-19T18:08:14.969Z,4.03
2023-05-19T18:10:42.619Z,2.58
2023-05-19T18:13:15.266Z,3.72
2023-05-19T18:15:41.965Z,3.60
2023-05-19T18:18:10.705Z,2.60
2023-05-19T18:20:44.286Z,2.60
2023-05-19T18:23:11.479Z,1.65
2023-05-19T18:25:39.387Z,2.30
2023-05-19T18:28:06.058Z,3.38
2023-05-19T18:30:33.234Z,3.20
2023-05-19T18:33:03.678Z,1.85
2023-05-19T18:35:30.843Z,1.90
2023-05-19T18:37:57.608Z,3.35
2023-05-19T18:40:24.677Z,2.17
2023-05-19T18:42:52.370Z,1.73
2023-05-19T18:45:19.237Z,1.52
2023-05-19T18:47:46.534Z,2.05
2023-05-19T18:50:14.518Z,3.35
2023-05-19T18:52:41.184Z,2.63
2023-05-19T18:55:14.871Z,2.85
2023-05-19T18:57:41.980Z,2.80
2023-05-19T19:00:09.278Z,3.40
2023-05-19T19:02:36.102Z,1.90
2023-05-19T19:05:04.106Z,1.98
2023-05-19T19:07:31.994Z,1.73
2023-05-19T19:09:58.733Z,3.17
2023-05-19T19:12:27.441Z,2.20
2023-05-19T19:14:54.892Z,3.30
2023-05-19T19:17:22.085Z,2.20
2023-05-19T19:19:49.117Z,1.67
2023-05-19T19:22:16.113Z,2.90
2023-05-19T19:24:43.192Z,3.15
2023-05-19T19:27:10.893Z,2.75
2023-05-19T19:29:37.697Z,2.28
2023-05-19T19:32:04.883Z,1.65
2023-05-19T19:34:31.771Z,2.22
2023-05-19T19:36:58.431Z,2.20
2023-05-19T19:39:26.110Z,1.77
2023-05-19T19:41:55.190Z,2.78
2023-05-19T19:44:23.981Z,3.67
2023-05-19T19:46:51.959Z,2.45
2023-05-19T19:49:20.116Z,2.67
2023-05-19T19:51:46.935Z,2.83
2023-05-19T19:54:13.625Z,2.33
2023-05-19T19:56:40.886Z,2.45
2023-05-19T19:59:07.725Z,2.08
2023-05-19T20:01:34.851Z,3.33
2023-05-19T20:04:01.757Z,1.85
2023-05-19T20:06:28.610Z,2.20
2023-05-19T20:08:55.311Z,2.20
2023-05-19T20:11:23.842Z,3.05
2023-05-19T20:13:50.658Z,2.80
2023-05-19T20:16:17.395Z,2.67
2023-05-19T20:18:44.116Z,2.58
2023-05-19T20:21:10.787Z,1.98
2023-05-19T20:23:39.088Z,2.58
2023-05-19T20:28:36.533Z,5.13
2023-05-19T20:31:03.172Z,2.50
2023-05-19T20:33:29.839Z,3.00
2023-05-19T20:35:56.466Z,2.88
2023-05-19T20:38:23.098Z,2.88
2023-05-19T20:40:49.849Z,2.28
2023-05-19T20:43:16.596Z,2.90
2023-05-19T20:45:44.259Z,2.13
2023-05-19T20:48:11.412Z,2.20
2023-05-19T20:50:39.348Z,1.75
2023-05-19T20:53:07.435Z,5.43
2023-05-19T20:55:37.523Z,3.53
2023-05-19T20:58:04.632Z,2.95
2023-05-19T21:00:31.324Z,2.00
2023-05-19T21:02:58.172Z,3.30
2023-05-19T21:05:25.035Z,1.83
2023-05-19T21:07:51.776Z,2.20
2023-05-19T21:10:18.444Z,2.80
2023-05-19T21:12:45.732Z,2.78
2023-05-19T21:15:12.670Z,2.97
2023-05-19T21:17:39.484Z,4.82
2023-05-19T21:20:06.652Z,2.50
2023-05-19T21:22:35.646Z,2.53
2023-05-19T21:25:02.311Z,1.83
2023-05-19T21:27:29.054Z,2.80
2023-05-19T21:29:55.744Z,1.83
2023-05-19T21:32:22.555Z,2.25
2023-05-19T21:34:49.208Z,2.53
2023-05-19T21:37:17.377Z,2.75
2023-05-19T21:39:44.680Z,2.78
2023-05-19T21:42:11.413Z,3.28
2023-05-19T21:44:38.219Z,2.10
2023-05-19T21:47:04.994Z,2.97
2023-05-19T21:49:31.706Z,2.40
2023-05-19T21:51:58.804Z,5.20
2023-05-19T21:54:25.451Z,2.90
2023-05-19T21:56:52.198Z,2.70
2023-05-19T21:59:19.558Z,2.88
2023-05-19T22:01:46.833Z,2.03
2023-05-19T22:04:16.460Z,3.00
2023-05-19T22:06:43.325Z,2.15
2023-05-19T22:09:10.426Z,2.75
2023-05-19T22:11:37.172Z,2.08
2023-05-19T22:14:03.806Z,2.15
2023-05-19T22:16:31.161Z,2.83
2023-05-19T22:18:57.900Z,1.90
2023-05-19T22:21:24.771Z,3.40
2023-05-19T22:23:52.149Z,4.65
2023-05-19T22:26:18.766Z,3.83
2023-05-19T22:28:45.512Z,2.70
2023-05-19T22:31:12.438Z,1.90
2023-05-19T22:33:39.211Z,2.78
2023-05-19T22:36:06.414Z,2.90
2023-05-19T22:38:33.082Z,2.78
2023-05-19T22:40:59.766Z,3.65
2023-05-19T22:43:26.504Z,3.55
2023-05-19T22:45:53.230Z,4.30
2023-05-19T22:48:19.980Z,2.53
2023-05-19T22:50:46.813Z,2.42
2023-05-19T22:53:13.497Z,2.67
2023-05-19T22:55:40.450Z,1.83
2023-05-19T22:58:07.189Z,2.50
2023-05-19T23:00:33.890Z,4.47
2023-05-19T23:03:00.539Z,3.38
2023-05-19T23:05:27.250Z,2.10
2023-05-19T23:07:54.028Z,2.58
2023-05-19T23:10:20.579Z,3.03
2023-05-19T23:12:47.276Z,2.20
2023-05-19T23:15:13.869Z,3.83
2023-05-19T23:17:40.595Z,2.35
2023-05-19T23:20:07.891Z,3.58
2023-05-19T23:22:34.614Z,3.38
2023-05-19T23:25:05.655Z,3.63
2023-05-19T23:27:32.312Z,5.05
2023-05-19T23:29:59.073Z,4.53
2023-05-19T23:32:25.932Z,3.35
2023-05-19T23:34:52.551Z,4.28
2023-05-19T23:37:19.250Z,3.53
2023-05-19T23:39:46.042Z,2.60
2023-05-19T23:42:13.217Z,2.38
2023-05-19T23:44:40.265Z,3.78
2023-05-19T23:47:07.066Z,2.35
2023-05-19T23:49:33.846Z,2.95
2023-05-19T23:52:00.571Z,2.40
2023-05-19T23:54:27.237Z,2.50
2023-05-19T23:56:55.832Z,1.98
2023-05-19T23:59:22.597Z,2.10
